Terminal Aerodrome Forecast
Issued by NWS

Home | Current Version | Previous Version | Text Only | Print | Product List | Glossary On
Versions: 1 2 3 4 5 6 7 8 9 10 11 12 13
000
FTUS44 KJAN 262321
TAFGTR
TAF
KGTR 262321Z 2700/2724 19008KT P6SM FEW060
     FM270900 17007KT P6SM BKN025
     FM271000 17007KT P6SM BKN015
     FM271200 17007KT P6SM BKN008
     FM271400 18010G19KT P6SM BKN015
     FM271600 19013G19KT P6SM BKN025
     FM271900 20013G20KT P6SM VCSH SCT040
     FM272100 20011KT P6SM TSRA BKN050CB=

USA.gov is the U.S. government's official web portal to all federal, state and local government web resources and services.